createdAt,value
2019-03-21T08:22:01.012Z,6.27
2019-03-21T08:24:32.227Z,6.50
2019-03-21T08:27:04.737Z,8.37
2019-03-21T08:29:37.626Z,7.90
2019-03-21T08:32:08.370Z,7.20
2019-03-21T08:34:38.992Z,7.43
2019-03-21T08:37:09.560Z,6.47
2019-03-21T08:39:39.996Z,6.23
2019-03-21T08:42:10.532Z,4.63
2019-03-21T08:44:41.015Z,5.67
2019-03-21T08:47:11.482Z,5.53
2019-03-21T08:49:42.011Z,8.03
2019-03-21T08:52:12.482Z,5.37
2019-03-21T08:54:42.895Z,5.93
2019-03-21T08:57:13.349Z,11.80
2019-03-21T08:59:43.806Z,19.80
2019-03-21T09:02:14.259Z,8.57
2019-03-21T09:04:45.718Z,7.30
2019-03-21T09:07:16.384Z,6.53
2019-03-21T09:09:47.508Z,7.17
2019-03-21T09:12:18.388Z,7.97
2019-03-21T09:14:49.837Z,7.77
2019-03-21T09:17:22.275Z,6.30
2019-03-21T09:19:54.058Z,8.10
2019-03-21T09:22:27.484Z,7.23
2019-03-21T09:24:58.137Z,9.23
2019-03-21T09:27:31.642Z,8.53
2019-03-21T09:30:02.510Z,8.50
2019-03-21T09:32:33.051Z,7.53
2019-03-21T09:35:03.849Z,11.53
2019-03-21T09:37:34.203Z,8.67
2019-03-21T09:40:07.642Z,7.30
2019-03-21T09:42:38.259Z,7.30
2019-03-21T09:45:09.603Z,7.20
2019-03-21T09:47:44.155Z,7.87
2019-03-21T09:50:36.433Z,8.07
2019-03-21T09:53:16.619Z,7.37
2019-03-21T09:55:49.959Z,6.07
2019-03-21T09:58:25.649Z,7.50
2019-03-21T10:01:01.791Z,6.23
2019-03-21T10:03:33.762Z,7.40
2019-03-21T10:06:04.380Z,8.30
2019-03-21T10:08:36.568Z,7.50
2019-03-21T10:11:07.315Z,6.60
2019-03-21T10:13:39.926Z,8.00
2019-03-21T10:16:10.460Z,14.60
2019-03-21T10:18:41.882Z,12.63
2019-03-21T10:21:14.136Z,6.87
2019-03-21T10:23:46.175Z,5.27
2019-03-21T10:26:19.323Z,7.77
2019-03-21T10:28:53.206Z,8.20
2019-03-21T10:31:30.896Z,8.77
2019-03-21T10:34:10.029Z,25.20
2019-03-21T10:36:42.232Z,18.90
2019-03-21T10:39:14.070Z,7.97
2019-03-21T10:41:45.159Z,9.47
2019-03-21T10:44:15.632Z,6.83
2019-03-21T10:46:47.701Z,6.30
2019-03-21T10:49:21.566Z,7.00
2019-03-21T10:51:55.106Z,6.63
2019-03-21T10:54:26.730Z,6.57
2019-03-21T10:57:01.763Z,6.03
2019-03-21T10:59:37.251Z,6.70
2019-03-21T11:02:07.800Z,7.03
2019-03-21T11:04:38.322Z,7.47
2019-03-21T11:07:07.584Z,7.83
2019-03-21T11:09:39.185Z,8.30
2019-03-21T11:12:09.647Z,6.97
2019-03-21T11:14:40.198Z,6.83
2019-03-21T11:17:10.733Z,12.03
2019-03-21T11:19:41.238Z,8.37
2019-03-21T11:22:12.732Z,8.27
2019-03-21T11:24:43.580Z,10.03
2019-03-21T11:27:15.762Z,11.20
2019-03-21T11:30:15.931Z,11.63
2019-03-21T11:32:49.536Z,11.70
2019-03-21T11:35:22.058Z,10.53
2019-03-21T11:37:52.783Z,12.57
2019-03-21T11:40:23.455Z,10.40
2019-03-21T11:42:54.155Z,8.50
2019-03-21T11:45:24.643Z,8.07
2019-03-21T11:47:55.245Z,10.37
2019-03-21T11:50:29.172Z,22.60
2019-03-21T11:52:59.940Z,12.63
2019-03-21T11:55:30.553Z,15.07
2019-03-21T11:58:02.408Z,14.10
2019-03-21T12:00:42.748Z,14.43
2019-03-21T12:03:08.059Z,9.40
2019-03-21T12:05:40.797Z,7.73
2019-03-21T12:08:11.565Z,9.50
2019-03-21T12:11:26.902Z,12.37
2019-03-21T12:13:59.470Z,14.07
2019-03-21T12:16:29.888Z,11.77
2019-03-21T12:19:00.609Z,16.30
2019-03-21T12:21:32.066Z,18.55
2019-03-21T12:24:04.342Z,14.63
2019-03-21T12:26:35.688Z,18.62
2019-03-21T12:29:07.367Z,18.12
2019-03-21T12:31:38.871Z,12.20
2019-03-21T12:34:09.442Z,10.13
2019-03-21T12:36:40.078Z,11.45
2019-03-21T12:39:10.825Z,9.90
2019-03-21T12:41:41.285Z,10.53
2019-03-21T12:44:13.457Z,9.83
2019-03-21T12:46:44.097Z,10.70
2019-03-21T12:49:16.469Z,16.57
2019-03-21T12:51:48.182Z,12.77
2019-03-21T12:54:20.409Z,9.60
2019-03-21T12:59:25.848Z,9.83
2019-03-21T13:01:56.384Z,16.03
2019-03-21T13:04:27.040Z,15.63
2019-03-21T13:06:58.806Z,20.73
2019-03-21T13:07:13.279Z,9.83
2019-03-21T13:09:30.558Z,20.43
2019-03-21T13:12:03.491Z,20.20
2019-03-21T13:14:35.321Z,18.07
2019-03-21T13:17:05.947Z,16.83
2019-03-21T13:19:36.986Z,15.17
2019-03-21T13:22:07.566Z,14.77
2019-03-21T13:24:39.233Z,13.70
2019-03-21T13:27:09.985Z,12.93
2019-03-21T13:29:40.645Z,10.90
2019-03-21T13:32:11.150Z,9.67
2019-03-21T13:34:46.009Z,12.97
2019-03-21T13:37:18.166Z,20.60
2019-03-21T13:39:50.377Z,13.77
2019-03-21T13:42:22.077Z,11.93
2019-03-21T13:44:54.984Z,12.37
2019-03-21T13:47:26.326Z,9.63
2019-03-21T13:49:57.229Z,8.53
2019-03-21T13:52:29.178Z,8.53
2019-03-21T13:54:59.639Z,8.17
2019-03-21T13:57:30.114Z,8.27
2019-03-21T14:00:00.964Z,9.37
2019-03-21T14:02:31.777Z,9.73
2019-03-21T14:05:02.519Z,9.47
2019-03-21T14:07:33.159Z,10.57
2019-03-21T14:10:07.335Z,9.57
2019-03-21T14:12:38.197Z,10.27
2019-03-21T14:15:16.788Z,11.60
2019-03-21T14:17:47.402Z,11.17
2019-03-21T14:20:20.408Z,11.93
2019-03-21T14:22:50.311Z,11.20
2019-03-21T14:25:21.910Z,12.13
2019-03-21T14:27:52.685Z,12.90
2019-03-21T14:30:23.299Z,11.65
2019-03-21T14:32:55.909Z,12.37
2019-03-21T14:35:26.769Z,12.23
2019-03-21T14:37:57.319Z,12.20
2019-03-21T14:40:27.840Z,11.30
2019-03-21T14:42:58.353Z,12.97
2019-03-21T14:45:28.766Z,13.03
2019-03-21T14:47:59.332Z,13.67
2019-03-21T14:50:29.782Z,12.40
2019-03-21T14:53:00.609Z,13.80
2019-03-21T14:55:31.894Z,13.63
2019-03-21T14:58:02.773Z,15.80
2019-03-21T15:00:33.211Z,15.43
2019-03-21T15:03:04.941Z,15.17
2019-03-21T15:05:35.605Z,13.47
2019-03-21T15:08:06.250Z,15.60
2019-03-21T15:10:38.160Z,14.40
2019-03-21T15:13:08.748Z,13.97
2019-03-21T15:15:39.169Z,13.63
2019-03-21T15:18:09.694Z,10.53
2019-03-21T15:20:40.045Z,10.23
2019-03-21T15:23:13.277Z,10.43
2019-03-21T15:25:44.820Z,11.53
2019-03-21T15:28:16.185Z,15.47
2019-03-21T15:30:46.589Z,15.67
2019-03-21T15:33:17.038Z,13.40
2019-03-21T15:35:47.459Z,15.72
2019-03-21T15:38:17.941Z,13.93
2019-03-21T15:40:48.330Z,17.57
2019-03-21T15:43:18.787Z,16.90
2019-03-21T15:45:49.313Z,16.90
2019-03-21T15:48:21.093Z,17.40
2019-03-21T15:51:03.814Z,16.13
2019-03-21T15:53:26.989Z,13.33
2019-03-21T15:55:57.421Z,17.03
2019-03-21T15:58:27.872Z,24.40
2019-03-21T16:00:58.308Z,15.10
2019-03-21T16:03:29.011Z,16.27
2019-03-21T16:05:59.437Z,17.80
2019-03-21T16:08:29.955Z,13.47
2019-03-21T16:11:00.399Z,13.50
2019-03-21T16:13:31.729Z,14.80
